createdAt,value
2018-04-07T00:00:51.392Z,1011.76
2018-04-07T00:01:51.366Z,1011.77
2018-04-07T00:02:51.341Z,1011.74
2018-04-07T00:03:51.374Z,1011.75
2018-04-07T00:04:51.601Z,1011.65
2018-04-07T00:05:51.297Z,1011.64
2018-04-07T00:06:51.267Z,1011.57
2018-04-07T00:07:51.241Z,1011.60
2018-04-07T00:08:51.226Z,1011.53
2018-04-07T00:09:51.300Z,1011.55
2018-04-07T00:10:51.494Z,1011.51
2018-04-07T00:11:51.169Z,1011.53
2018-04-07T00:12:51.142Z,1011.44
2018-04-07T00:13:51.172Z,1011.46
2018-04-07T00:14:51.411Z,1011.46
2018-04-07T00:15:51.104Z,1011.45
2018-04-07T00:16:51.375Z,1011.46
2018-04-07T00:17:51.056Z,1011.36
2018-04-07T00:18:51.060Z,1011.40
2018-04-07T00:19:51.120Z,1011.33
2018-04-07T00:20:50.994Z,1011.30
2018-04-07T00:21:50.984Z,1011.30
2018-04-07T00:22:51.259Z,1011.36
2018-04-07T00:24:50.920Z,1011.25
2018-04-07T00:25:51.098Z,1011.26
2018-04-07T00:26:50.881Z,1011.26
2018-04-07T00:27:50.866Z,1011.26
2018-04-07T00:28:51.139Z,1011.15
2018-04-07T00:29:50.828Z,1011.19
2018-04-07T00:30:50.810Z,1011.22
2018-04-07T00:31:50.839Z,1011.14
2018-04-07T00:32:50.765Z,1011.19
2018-04-07T00:33:50.750Z,1011.10
2018-04-07T00:34:51.033Z,1011.10
2018-04-07T00:35:50.714Z,1011.04
2018-04-07T00:36:50.690Z,1011.07
2018-04-07T00:37:50.725Z,1011.07
2018-04-07T00:38:50.660Z,1011.12
2018-04-07T00:39:50.635Z,1011.15
2018-04-07T00:40:50.819Z,1011.17
2018-04-07T00:41:50.899Z,1011.14
2018-04-07T00:42:50.579Z,1011.15
2018-04-07T00:43:51.910Z,1011.09
2018-04-07T00:44:50.566Z,1011.05
2018-04-07T00:45:50.516Z,1011.08
2018-04-07T00:46:50.558Z,1011.07
2018-04-07T00:47:50.532Z,1011.02
2018-04-07T00:48:50.758Z,1011.03
2018-04-07T00:49:50.593Z,1011.08
2018-04-07T00:50:50.675Z,1011.07
2018-04-07T00:51:50.426Z,1011.06
2018-04-07T00:52:50.405Z,1011.02
2018-04-07T00:53:50.380Z,1011.01
2018-04-07T00:54:50.360Z,1011.00
2018-04-07T00:55:50.994Z,1011.00
2018-04-07T00:56:50.451Z,1010.94
2018-04-07T00:57:50.403Z,1010.98
2018-04-07T00:58:50.417Z,1010.86
2018-04-07T00:59:50.280Z,1010.97
2018-04-07T01:00:50.347Z,1010.95
2018-04-07T01:01:50.324Z,1010.97
2018-04-07T01:02:50.509Z,1010.88
2018-04-07T01:03:50.203Z,1010.94
2018-04-07T01:04:50.177Z,1010.88
2018-04-07T01:05:50.155Z,1010.90
2018-04-07T01:06:50.137Z,1010.88
2018-04-07T01:07:50.168Z,1010.95
2018-04-07T01:08:50.100Z,1010.98
2018-04-07T01:09:50.377Z,1010.95
2018-04-07T01:10:50.073Z,1011.03
2018-04-07T01:11:50.158Z,1011.03
2018-04-07T01:12:50.031Z,1011.02
2018-04-07T01:13:50.080Z,1011.04
2018-04-07T01:14:50.191Z,1011.06
2018-04-07T01:15:49.968Z,1011.00
2018-04-07T01:16:50.249Z,1011.06
2018-04-07T01:17:49.934Z,1011.03
2018-04-07T01:18:49.920Z,1011.05
2018-04-07T01:19:50.000Z,1010.95
2018-04-07T01:20:50.006Z,1010.96
2018-04-07T01:21:49.978Z,1011.03
2018-04-07T01:22:49.961Z,1010.92
2018-04-07T01:23:50.160Z,1011.02
2018-04-07T01:24:49.880Z,1010.97
2018-04-07T01:25:49.889Z,1011.00
2018-04-07T01:26:49.771Z,1010.95
2018-04-07T01:27:49.753Z,1010.97
2018-04-07T01:28:49.731Z,1011.00
2018-04-07T01:29:50.016Z,1010.95
2018-04-07T01:30:49.688Z,1010.92
2018-04-07T01:31:52.373Z,1010.91
2018-04-07T01:32:49.646Z,1010.90
2018-04-07T01:33:49.645Z,1010.87
2018-04-07T01:34:49.628Z,1010.89
2018-04-07T01:35:49.898Z,1010.80
2018-04-07T01:36:49.586Z,1010.76
2018-04-07T01:37:49.656Z,1010.75
2018-04-07T01:38:49.534Z,1010.82
2018-04-07T01:39:49.570Z,1010.74
2018-04-07T01:40:49.502Z,1010.73
2018-04-07T01:41:49.789Z,1010.75
2018-04-07T01:42:49.479Z,1010.74
2018-04-07T01:43:50.711Z,1010.76
2018-04-07T01:44:49.447Z,1010.73
2018-04-07T01:45:49.412Z,1010.72
2018-04-07T01:46:49.386Z,1010.72
2018-04-07T01:47:49.677Z,1010.73
2018-04-07T01:48:49.350Z,1010.78
2018-04-07T01:49:49.384Z,1010.77
2018-04-07T01:50:49.316Z,1010.80
2018-04-07T01:51:49.302Z,1010.82
2018-04-07T01:52:49.278Z,1010.77
2018-04-07T01:53:49.667Z,1010.75
2018-04-07T01:54:49.234Z,1010.70
2018-04-07T01:55:49.617Z,1010.75
2018-04-07T01:56:49.261Z,1010.77
2018-04-07T01:57:49.509Z,1010.74
2018-04-07T01:58:49.182Z,1010.66
2018-04-07T01:59:49.460Z,1010.69
2018-04-07T02:00:49.123Z,1010.70
2018-04-07T02:01:49.168Z,1010.70
2018-04-07T02:02:49.186Z,1010.71
2018-04-07T02:03:49.283Z,1010.69
2018-04-07T02:04:49.054Z,1010.71
2018-04-07T02:05:49.034Z,1010.75
2018-04-07T02:06:49.324Z,1010.72
2018-04-07T02:07:49.008Z,1010.77
2018-04-07T02:08:49.337Z,1010.74
2018-04-07T02:09:49.125Z,1010.76
2018-04-07T02:10:48.936Z,1010.74
2018-04-07T02:11:48.922Z,1010.77
2018-04-07T02:12:48.892Z,1010.76
2018-04-07T02:13:49.279Z,1010.78
2018-04-07T02:14:48.861Z,1010.74
2018-04-07T02:15:50.102Z,1010.74
2018-04-07T02:16:48.871Z,1010.79
2018-04-07T02:17:48.910Z,1010.71
2018-04-07T02:18:48.782Z,1010.73
2018-04-07T02:19:48.824Z,1010.73
2018-04-07T02:20:49.145Z,1010.71
2018-04-07T02:21:48.985Z,1010.62
2018-04-07T02:22:50.122Z,1010.72
2018-04-07T02:23:48.706Z,1010.66
2018-04-07T02:24:48.666Z,1010.69
2018-04-07T02:25:48.696Z,1010.65
2018-04-07T02:26:48.638Z,1010.66
2018-04-07T02:27:49.027Z,1010.68
2018-04-07T02:28:48.590Z,1010.69
2018-04-07T02:29:48.579Z,1010.65
2018-04-07T02:30:48.559Z,1010.69
2018-04-07T02:31:48.544Z,1010.63
2018-04-07T02:32:48.513Z,1010.63
2018-04-07T02:33:48.560Z,1010.65
2018-04-07T02:34:48.774Z,1010.62
2018-04-07T02:35:48.470Z,1010.60
2018-04-07T02:36:48.448Z,1010.56
2018-04-07T02:37:48.421Z,1010.60
2018-04-07T02:38:48.402Z,1010.65
2018-04-07T02:39:48.536Z,1010.58
2018-04-07T02:40:48.371Z,1010.60
2018-04-07T02:41:48.648Z,1010.62
2018-04-07T02:42:48.333Z,1010.60
2018-04-07T02:43:48.322Z,1010.58
2018-04-07T02:44:48.290Z,1010.57
2018-04-07T02:45:48.408Z,1010.64
2018-04-07T02:46:48.271Z,1010.61
2018-04-07T02:47:48.236Z,1010.67
2018-04-07T02:49:48.506Z,1010.67
2018-04-07T02:50:48.196Z,1010.67
2018-04-07T02:51:48.365Z,1010.67
2018-04-07T02:52:48.136Z,1010.62
2018-04-07T02:53:48.221Z,1010.67
2018-04-07T02:54:48.212Z,1010.62
2018-04-07T02:55:48.447Z,1010.64
2018-04-07T02:56:48.153Z,1010.62
2018-04-07T02:57:48.102Z,1010.58
2018-04-07T02:58:48.017Z,1010.64
2018-04-07T02:59:48.004Z,1010.62
2018-04-07T03:00:47.980Z,1010.62
2018-04-07T03:01:48.263Z,1010.68
2018-04-07T03:02:47.941Z,1010.60
2018-04-07T03:03:48.093Z,1010.61
2018-04-07T03:04:48.673Z,1010.49
2018-04-07T03:05:47.994Z,1010.55
2018-04-07T03:06:48.173Z,1010.52
2018-04-07T03:07:48.173Z,1010.54
2018-04-07T03:08:47.821Z,1010.49
2018-04-07T03:09:47.953Z,1010.48
2018-04-07T03:10:47.782Z,1010.44
2018-04-07T03:11:47.819Z,1010.46
2018-04-07T03:12:47.744Z,1010.44
2018-04-07T03:13:48.020Z,1010.45
2018-04-07T03:14:47.708Z,1010.46
2018-04-07T03:15:47.999Z,1010.46
2018-04-07T03:16:47.673Z,1010.46
2018-04-07T03:17:47.999Z,1010.47
2018-04-07T03:18:47.637Z,1010.45
2018-04-07T03:19:48.509Z,1010.43
2018-04-07T03:22:32.301Z,1010.39
2018-04-07T03:23:32.233Z,1010.40
2018-04-07T03:24:32.420Z,1010.34
2018-04-07T03:25:32.268Z,1010.38
2018-04-07T03:26:32.311Z,1010.36
2018-04-07T03:27:32.161Z,1010.34
2018-04-07T03:28:32.137Z,1010.37
2018-04-07T03:29:32.113Z,1010.37
2018-04-07T03:30:32.098Z,1010.36
2018-04-07T03:31:32.077Z,1010.38
2018-04-07T03:32:32.153Z,1010.41
2018-04-07T03:34:32.317Z,1010.33
2018-04-07T03:35:32.008Z,1010.30
2018-04-07T03:36:31.981Z,1010.23
2018-04-07T03:37:31.956Z,1010.28
2018-04-07T03:38:32.042Z,1010.23
2018-04-07T03:39:31.925Z,1010.24
2018-04-07T03:40:31.896Z,1010.17
2018-04-07T03:41:31.881Z,1010.25
2018-04-07T03:42:31.956Z,1010.17
2018-04-07T03:43:32.533Z,1010.21
2018-04-07T03:44:31.998Z,1010.19
2018-04-07T03:45:31.796Z,1010.21
2018-04-07T03:46:31.781Z,1010.22
2018-04-07T03:47:31.892Z,1010.22
2018-04-07T03:48:31.755Z,1010.19
2018-04-07T03:49:31.819Z,1010.20
2018-04-07T03:50:31.911Z,1010.13
2018-04-07T03:51:31.678Z,1010.13
2018-04-07T03:52:31.662Z,1010.07
2018-04-07T03:53:31.641Z,1010.11
2018-04-07T03:54:31.623Z,1010.13
2018-04-07T03:55:31.601Z,1010.02
2018-04-07T03:56:31.630Z,1010.10
2018-04-07T03:57:31.613Z,1010.13
2018-04-07T03:58:31.548Z,1010.11
2018-04-07T03:59:31.525Z,1010.14
2018-04-07T04:00:31.501Z,1010.12
2018-04-07T04:01:31.484Z,1010.16
2018-04-07T04:02:31.460Z,1010.17
2018-04-07T04:03:31.490Z,1010.20
2018-04-07T04:04:31.426Z,1010.23
2018-04-07T04:05:31.406Z,1010.26
2018-04-07T04:06:31.403Z,1010.28
2018-04-07T04:07:31.365Z,1010.28
2018-04-07T04:08:31.346Z,1010.33
2018-04-07T04:09:31.378Z,1010.36
2018-04-07T04:10:31.351Z,1010.33
2018-04-07T04:11:31.282Z,1010.36
2018-04-07T04:12:31.270Z,1010.34
2018-04-07T04:13:31.262Z,1010.37
2018-04-07T04:14:31.223Z,1010.34
2018-04-07T04:15:31.213Z,1010.36
2018-04-07T04:16:31.236Z,1010.39
2018-04-07T04:17:31.164Z,1010.38
2018-04-07T04:18:31.145Z,1010.39
2018-04-07T04:19:31.124Z,1010.31
2018-04-07T04:20:31.104Z,1010.33
2018-04-07T04:21:31.082Z,1010.31
2018-04-07T04:22:31.118Z,1010.27
2018-04-07T04:23:31.044Z,1010.29
2018-04-07T04:24:31.023Z,1010.27
2018-04-07T04:25:31.004Z,1010.24
2018-04-07T04:26:31.033Z,1010.23
2018-04-07T04:27:30.965Z,1010.18
2018-04-07T04:28:30.950Z,1010.17
2018-04-07T04:29:30.919Z,1010.15
2018-04-07T04:30:30.955Z,1010.14
2018-04-07T04:31:30.888Z,1010.16
2018-04-07T04:32:30.908Z,1010.15
2018-04-07T04:33:30.842Z,1010.14
2018-04-07T04:34:30.825Z,1010.15
2018-04-07T04:35:30.811Z,1010.19
2018-04-07T04:36:30.826Z,1010.14
2018-04-07T04:37:30.768Z,1010.14
2018-04-07T04:38:30.792Z,1010.12
2018-04-07T04:39:30.723Z,1010.14
2018-04-07T04:40:30.707Z,1010.12
2018-04-07T04:41:30.695Z,1010.18
2018-04-07T04:42:30.664Z,1010.14
2018-04-07T04:43:30.648Z,1010.15
2018-04-07T04:44:30.887Z,1010.16
2018-04-07T04:45:30.679Z,1010.15
2018-04-07T04:46:30.756Z,1010.11
2018-04-07T04:47:30.564Z,1010.09
2018-04-07T04:48:30.547Z,1010.10
2018-04-07T04:49:30.573Z,1010.05
2018-04-07T04:50:30.611Z,1010.07
2018-04-07T04:51:30.490Z,1010.10
2018-04-07T04:52:30.463Z,1010.06
2018-04-07T04:53:30.443Z,1010.03
2018-04-07T04:54:30.423Z,1010.07
2018-04-07T04:55:30.403Z,1010.06
2018-04-07T04:56:30.436Z,1010.04
2018-04-07T04:57:30.366Z,1009.94
2018-04-07T04:58:30.340Z,1009.91
2018-04-07T04:59:30.324Z,1009.92
2018-04-07T05:00:30.302Z,1009.95
2018-04-07T05:01:30.333Z,1009.92
2018-04-07T05:02:30.265Z,1009.91
2018-04-07T05:03:30.563Z,1009.91
2018-04-07T05:04:30.227Z,1009.89
2018-04-07T05:05:30.204Z,1009.90
2018-04-07T05:06:30.186Z,1009.92
2018-04-07T05:07:30.214Z,1009.93
2018-04-07T05:08:30.156Z,1009.90
2018-04-07T05:09:30.224Z,1009.88
2018-04-07T05:10:30.104Z,1009.90
2018-04-07T05:11:30.081Z,1009.89
2018-04-07T05:12:30.063Z,1009.92
2018-04-07T05:13:30.097Z,1009.94
2018-04-07T05:14:30.023Z,1009.97
2018-04-07T05:15:30.008Z,1009.94
2018-04-07T05:16:29.987Z,1010.00
2018-04-07T05:17:29.966Z,1009.94
2018-04-07T05:18:29.994Z,1009.96
2018-04-07T05:19:29.970Z,1009.98
2018-04-07T05:20:29.904Z,1010.00
2018-04-07T05:21:29.881Z,1009.96
2018-04-07T05:22:29.867Z,1009.94
2018-04-07T05:23:29.850Z,1009.92
2018-04-07T05:24:29.827Z,1009.93
2018-04-07T05:25:29.858Z,1009.91
2018-04-07T05:27:30.064Z,1009.96
2018-04-07T05:28:29.744Z,1009.93
2018-04-07T05:29:29.725Z,1009.99
2018-04-07T05:30:29.703Z,1009.97
2018-04-07T05:31:30.033Z,1009.98
2018-04-07T05:32:29.664Z,1009.95
2018-04-07T05:33:29.643Z,1009.94
2018-04-07T05:34:29.635Z,1009.93
2018-04-07T05:35:29.605Z,1009.98
2018-04-07T05:36:29.583Z,1009.95
2018-04-07T05:37:29.624Z,1010.00
2018-04-07T05:38:29.548Z,1009.98
2018-04-07T05:39:29.529Z,1009.99
2018-04-07T05:40:29.504Z,1009.98
2018-04-07T05:41:29.498Z,1009.97
2018-04-07T05:42:29.467Z,1009.98
2018-04-07T05:43:29.496Z,1009.95
2018-04-07T05:44:29.436Z,1009.97
2018-04-07T05:45:29.407Z,1009.95
2018-04-07T05:46:29.388Z,1009.93
2018-04-07T05:47:29.370Z,1009.94
2018-04-07T05:48:29.353Z,1009.95
2018-04-07T05:49:29.478Z,1009.93
2018-04-07T05:50:29.350Z,1009.91
2018-04-07T05:51:29.291Z,1009.97
2018-04-07T05:53:29.606Z,1009.89
2018-04-07T05:54:29.233Z,1009.94
2018-04-07T05:55:29.316Z,1009.94
2018-04-07T05:56:29.417Z,1009.96
2018-04-07T05:57:29.319Z,1009.98
2018-04-07T05:58:29.214Z,1009.94
2018-04-07T05:59:29.535Z,1010.01
2018-04-07T06:00:29.118Z,1010.01
2018-04-07T06:02:29.460Z,1010.00
2018-04-07T06:03:30.558Z,1009.95
2018-04-07T06:06:28.993Z,1009.99
2018-04-07T06:07:29.239Z,1010.02
2018-04-07T06:08:29.119Z,1010.01
2018-04-07T06:09:28.938Z,1009.97
2018-04-07T06:10:28.919Z,1009.96
2018-04-07T06:11:28.980Z,1009.93
2018-04-07T06:12:28.887Z,1009.99
2018-04-07T06:14:28.895Z,1009.96
2018-04-07T06:15:28.835Z,1009.98
2018-04-07T06:16:28.811Z,1009.99
2018-04-07T06:17:28.787Z,1009.96
2018-04-07T06:18:28.873Z,1009.97
2018-04-07T06:19:28.980Z,1009.92
2018-04-07T06:20:28.914Z,1009.91
2018-04-07T06:21:28.711Z,1009.94
2018-04-07T06:22:28.772Z,1009.94
2018-04-07T06:23:28.703Z,1009.96
2018-04-07T06:24:28.651Z,1009.95
2018-04-07T06:25:28.638Z,1009.95
2018-04-07T06:26:28.670Z,1009.96
2018-04-07T06:27:28.663Z,1009.90
2018-04-07T06:28:28.580Z,1009.90
2018-04-07T06:29:28.642Z,1009.92
2018-04-07T06:30:28.891Z,1009.88
2018-04-07T06:31:28.524Z,1009.83
2018-04-07T06:32:28.765Z,1009.88
2018-04-07T06:33:28.539Z,1009.86
2018-04-07T06:34:28.481Z,1009.83
2018-04-07T06:35:28.447Z,1009.86
2018-04-07T06:36:28.481Z,1009.85
2018-04-07T06:37:28.409Z,1009.83
2018-04-07T06:38:28.424Z,1009.79
2018-04-07T06:39:28.371Z,1009.81
2018-04-07T06:40:28.354Z,1009.84
2018-04-07T06:41:28.335Z,1009.80
2018-04-07T06:42:28.373Z,1009.75
2018-04-07T06:44:28.324Z,1009.79
2018-04-07T06:45:28.274Z,1009.77
2018-04-07T06:46:28.242Z,1009.70
2018-04-07T06:47:28.286Z,1009.67
2018-04-07T06:48:28.264Z,1009.68
2018-04-07T06:49:28.285Z,1009.64
2018-04-07T06:50:28.871Z,1009.66
2018-04-07T06:51:28.160Z,1009.63
2018-04-07T06:52:28.225Z,1009.60
2018-04-07T06:53:28.135Z,1009.54
2018-04-07T06:54:28.144Z,1009.49
2018-04-07T06:55:28.079Z,1009.52
2018-04-07T06:56:28.064Z,1009.43
2018-04-07T06:57:28.044Z,1009.40
2018-04-07T06:58:28.030Z,1009.39
2018-04-07T06:59:28.008Z,1009.38
2018-04-07T07:00:28.380Z,1009.31
2018-04-07T07:01:27.972Z,1009.32
2018-04-07T07:02:27.955Z,1009.39
2018-04-07T07:03:27.933Z,1009.30
2018-04-07T07:04:27.918Z,1009.22
2018-04-07T07:05:27.899Z,1009.21
2018-04-07T07:06:28.031Z,1009.29
2018-04-07T07:07:27.861Z,1009.34
2018-04-07T07:08:27.842Z,1009.29
2018-04-07T07:09:27.831Z,1009.26
2018-04-07T07:10:27.807Z,1009.25
2018-04-07T07:11:27.839Z,1009.28
2018-04-07T07:12:28.319Z,1009.34
2018-04-07T07:13:27.913Z,1009.32
2018-04-07T07:15:28.028Z,1009.34
2018-04-07T07:16:27.758Z,1009.34
2018-04-07T07:17:27.743Z,1009.40
2018-04-07T07:18:27.779Z,1009.42
2018-04-07T07:19:27.653Z,1009.41
2018-04-07T07:20:27.635Z,1009.41
2018-04-07T07:22:27.914Z,1009.41
2018-04-07T07:23:27.584Z,1009.74
2018-04-07T07:24:27.631Z,1010.48
2018-04-07T07:25:27.549Z,1010.73
2018-04-07T07:26:27.539Z,1010.60
2018-04-07T07:27:27.512Z,1010.47
2018-04-07T07:28:27.504Z,1010.40
2018-04-07T07:29:27.659Z,1010.35
2018-04-07T07:30:27.601Z,1010.34
2018-04-07T07:31:27.454Z,1010.31
2018-04-07T07:32:27.436Z,1010.20
2018-04-07T07:33:27.419Z,1010.14
2018-04-07T07:34:27.448Z,1010.08
2018-04-07T07:35:27.392Z,1010.04
2018-04-07T07:36:27.372Z,1010.02
2018-04-07T07:37:27.410Z,1010.12
2018-04-07T07:38:27.696Z,1010.21
2018-04-07T07:39:27.328Z,1010.22
2018-04-07T07:40:27.386Z,1010.08
2018-04-07T07:41:27.289Z,1010.09
2018-04-07T07:42:27.277Z,1010.15
2018-04-07T07:44:27.240Z,1010.35
2018-04-07T07:45:27.279Z,1010.38
2018-04-07T07:46:27.306Z,1010.42
2018-04-07T07:47:27.239Z,1010.45
2018-04-07T07:48:27.184Z,1010.40
2018-04-07T07:49:27.168Z,1010.56
2018-04-07T07:50:27.157Z,1010.61
2018-04-07T07:51:27.138Z,1010.59
2018-04-07T07:52:27.575Z,1010.54
2018-04-07T07:53:27.107Z,1010.49
2018-04-07T07:54:27.099Z,1010.31
2018-04-07T07:55:27.384Z,1010.48
2018-04-07T07:56:27.278Z,1010.48
2018-04-07T07:57:27.049Z,1010.57
2018-04-07T07:58:27.189Z,1010.70
2018-04-07T07:59:27.031Z,1010.75
2018-04-07T08:00:27.012Z,1010.51
2018-04-07T08:01:27.191Z,1010.98
2018-04-07T08:02:26.997Z,1011.19
2018-04-07T08:03:27.032Z,1011.42
2018-04-07T08:04:26.956Z,1012.00
2018-04-07T08:05:26.940Z,1014.10
2018-04-07T08:06:26.940Z,1016.28
2018-04-07T08:07:26.918Z,1015.11
2018-04-07T08:08:26.901Z,1013.28
2018-04-07T08:09:26.939Z,1012.29
2018-04-07T08:10:26.875Z,1011.84
2018-04-07T08:11:26.867Z,1011.97
2018-04-07T08:12:26.847Z,1012.54
2018-04-07T08:13:26.847Z,1012.84
2018-04-07T08:14:26.828Z,1012.61
2018-04-07T08:15:26.867Z,1012.31
2018-04-07T08:16:26.896Z,1011.48
2018-04-07T08:17:26.790Z,1011.08
2018-04-07T08:18:26.773Z,1010.76
2018-04-07T08:19:26.759Z,1010.66
2018-04-07T08:20:26.745Z,1010.62
2018-04-07T08:21:26.784Z,1010.52
2018-04-07T08:22:26.731Z,1010.55
2018-04-07T08:23:26.704Z,1010.60
2018-04-07T08:24:26.702Z,1010.54
2018-04-07T08:25:26.699Z,1010.83
2018-04-07T08:26:26.985Z,1010.88
2018-04-07T08:27:26.822Z,1010.79
2018-04-07T08:28:26.656Z,1010.81
2018-04-07T08:29:26.650Z,1011.02
2018-04-07T08:30:26.635Z,1010.95
2018-04-07T08:31:26.618Z,1010.92
2018-04-07T08:32:26.608Z,1010.66
2018-04-07T08:33:26.732Z,1010.45
2018-04-07T08:34:26.716Z,1010.30
2018-04-07T08:35:26.577Z,1010.22
2018-04-07T08:36:26.564Z,1010.16
2018-04-07T08:37:26.564Z,1010.15
2018-04-07T08:38:26.553Z,1010.05
2018-04-07T08:39:26.908Z,1009.99
2018-04-07T08:40:26.577Z,1009.86
2018-04-07T08:41:26.647Z,1009.87
2018-04-07T08:42:26.553Z,1009.83
2018-04-07T08:43:26.491Z,1009.74
2018-04-07T08:44:26.511Z,1009.81
2018-04-07T08:45:26.525Z,1009.81
2018-04-07T08:46:26.528Z,1009.90
2018-04-07T08:47:26.455Z,1009.96
2018-04-07T08:48:26.449Z,1009.64
2018-04-07T08:49:26.435Z,1009.72
2018-04-07T08:50:26.421Z,1009.66
2018-04-07T08:51:26.412Z,1009.48
2018-04-07T08:52:26.459Z,1009.56
2018-04-07T08:53:26.461Z,1009.74
2018-04-07T08:54:26.387Z,1009.70
2018-04-07T08:55:26.377Z,1009.66
2018-04-07T08:56:26.415Z,1009.77
2018-04-07T08:57:26.460Z,1009.83
2018-04-07T08:58:26.498Z,1009.79
2018-04-07T08:59:26.339Z,1009.75
2018-04-07T09:00:26.328Z,1009.77
2018-04-07T09:01:26.428Z,1009.67
2018-04-07T09:02:26.318Z,1009.61
2018-04-07T09:03:26.607Z,1009.65
2018-04-07T09:04:26.342Z,1009.65
2018-04-07T09:05:26.291Z,1009.57
2018-04-07T09:06:26.280Z,1009.60
2018-04-07T09:07:26.319Z,1009.60
2018-04-07T09:08:26.255Z,1009.60
2018-04-07T09:09:26.600Z,1009.64
2018-04-07T09:10:26.471Z,1009.68
2018-04-07T09:11:26.227Z,1009.55
2018-04-07T09:12:26.240Z,1009.57
2018-04-07T09:13:26.211Z,1009.53
2018-04-07T09:14:26.354Z,1009.53
2018-04-07T09:15:26.678Z,1009.50
2018-04-07T09:16:26.543Z,1009.58
2018-04-07T09:17:26.183Z,1009.57
2018-04-07T09:18:26.186Z,1009.54
2018-04-07T09:19:26.177Z,1009.58
2018-04-07T09:20:26.159Z,1009.58
2018-04-07T09:21:26.251Z,1009.68
2018-04-07T09:22:26.193Z,1009.64
2018-04-07T09:23:26.139Z,1009.66
2018-04-07T09:24:26.126Z,1009.65
2018-04-07T09:25:26.113Z,1009.70
2018-04-07T09:27:02.402Z,1009.67
2018-04-07T09:27:26.178Z,1009.69
2018-04-07T09:28:26.152Z,1009.74
2018-04-07T09:29:26.090Z,1009.68
2018-04-07T09:30:26.075Z,1009.68
2018-04-07T09:31:51.760Z,1009.64
2018-04-07T09:32:26.059Z,1009.66
2018-04-07T09:33:26.406Z,1009.65
2018-04-07T09:34:26.048Z,1009.67
2018-04-07T09:35:26.038Z,1009.62
2018-04-07T09:36:26.047Z,1009.67
2018-04-07T09:37:26.325Z,1009.73
2018-04-07T09:38:26.018Z,1009.78
2018-04-07T09:39:26.069Z,1009.70
2018-04-07T09:40:26.006Z,1009.68
2018-04-07T09:41:26.000Z,1009.73
2018-04-07T09:42:25.993Z,1009.71
2018-04-07T09:43:25.979Z,1009.68
2018-04-07T09:44:25.977Z,1009.70
2018-04-07T09:46:26.011Z,1009.65
2018-04-07T09:47:25.953Z,1009.73
2018-04-07T09:48:25.954Z,1009.67
2018-04-07T09:49:25.941Z,1009.69
2018-04-07T09:50:25.934Z,1009.62
2018-04-07T09:51:25.927Z,1009.54
2018-04-07T09:52:26.271Z,1009.66
2018-04-07T09:53:25.967Z,1009.71
2018-04-07T09:54:25.929Z,1009.67
2018-04-07T09:55:25.899Z,1009.63
2018-04-07T09:56:25.951Z,1009.58
2018-04-07T09:57:25.988Z,1009.56
2018-04-07T09:58:26.007Z,1009.53
2018-04-07T09:59:25.902Z,1009.55
2018-04-07T10:00:26.085Z,1009.45
2018-04-07T10:01:25.868Z,1009.40
2018-04-07T10:02:25.857Z,1009.52
2018-04-07T10:03:25.904Z,1009.51
2018-04-07T10:04:25.899Z,1009.52
2018-04-07T10:05:25.843Z,1009.48
2018-04-07T10:06:25.839Z,1009.45
2018-04-07T10:07:25.834Z,1009.46
2018-04-07T10:08:25.827Z,1009.47
2018-04-07T10:09:25.970Z,1009.40
2018-04-07T10:10:25.869Z,1009.37
2018-04-07T10:11:25.810Z,1009.37
2018-04-07T10:12:26.105Z,1009.37
2018-04-07T10:13:25.798Z,1009.41
2018-04-07T10:14:25.801Z,1009.35
2018-04-07T10:15:25.809Z,1009.35
2018-04-07T10:16:26.134Z,1009.30
2018-04-07T10:17:25.781Z,1009.28
2018-04-07T10:18:26.079Z,1009.30
2018-04-07T10:19:25.777Z,1009.24
2018-04-07T10:20:25.774Z,1009.20
2018-04-07T10:21:25.762Z,1009.25
2018-04-07T10:22:25.812Z,1009.29
2018-04-07T10:24:26.049Z,1009.22
2018-04-07T10:25:25.743Z,1009.19
2018-04-07T10:27:25.742Z,1009.12
2018-04-07T10:28:25.780Z,1009.16
2018-04-07T10:29:25.739Z,1009.12
2018-04-07T10:30:26.031Z,1009.08
2018-04-07T10:31:25.739Z,1009.06
2018-04-07T10:32:25.716Z,1009.04
2018-04-07T10:33:25.714Z,1008.97
2018-04-07T10:35:25.804Z,1008.96
2018-04-07T10:36:25.710Z,1008.94
2018-04-07T10:37:25.700Z,1008.88
2018-04-07T10:38:25.714Z,1008.95
2018-04-07T10:39:25.687Z,1008.92
2018-04-07T10:40:25.692Z,1008.84
2018-04-07T10:41:25.881Z,1008.86
2018-04-07T10:42:25.986Z,1008.89
2018-04-07T10:43:25.683Z,1008.92
2018-04-07T10:44:25.779Z,1008.92
2018-04-07T10:45:25.671Z,1008.88
2018-04-07T10:46:25.674Z,1008.82
2018-04-07T10:47:25.725Z,1008.86
2018-04-07T10:48:25.680Z,1008.86
2018-04-07T10:50:25.669Z,1008.95
2018-04-07T10:51:25.655Z,1008.93
2018-04-07T10:52:25.671Z,1008.96
2018-04-07T10:53:25.703Z,1008.94
2018-04-07T10:54:25.666Z,1008.89
2018-04-07T10:55:25.720Z,1008.87
2018-04-07T10:56:25.643Z,1008.86
2018-04-07T10:57:25.653Z,1008.70
2018-04-07T10:58:25.643Z,1008.86
2018-04-07T10:59:25.706Z,1008.94
2018-04-07T11:00:25.944Z,1008.89
2018-04-07T11:01:25.633Z,1008.86
2018-04-07T11:02:25.737Z,1008.87
2018-04-07T11:03:25.671Z,1008.83
2018-04-07T11:04:25.629Z,1008.86
2018-04-07T11:05:25.677Z,1008.85
2018-04-07T11:07:25.639Z,1008.82
2018-04-07T11:08:25.633Z,1008.80
2018-04-07T11:09:25.622Z,1008.81
2018-04-07T11:10:25.649Z,1008.84
2018-04-07T11:11:26.115Z,1008.81
2018-04-07T11:12:25.633Z,1008.80
2018-04-07T11:13:25.617Z,1008.77
2018-04-07T11:14:25.611Z,1008.74
2018-04-07T11:15:25.767Z,1008.73
2018-04-07T11:17:25.962Z,1008.72
2018-04-07T11:18:25.659Z,1008.67
2018-04-07T11:20:25.603Z,1008.61
2018-04-07T11:21:26.314Z,1008.69
2018-04-07T11:22:25.603Z,1008.75
2018-04-07T11:23:25.666Z,1008.68
2018-04-07T11:24:25.600Z,1008.62
2018-04-07T11:25:25.599Z,1008.62
2018-04-07T11:26:25.605Z,1008.62
2018-04-07T11:27:25.598Z,1008.58
2018-04-07T11:28:25.643Z,1008.63
2018-04-07T11:29:25.717Z,1008.63
2018-04-07T11:30:25.599Z,1008.61
2018-04-07T11:31:25.610Z,1008.57
2018-04-07T11:32:25.592Z,1008.57
2018-04-07T11:33:25.602Z,1008.59
2018-04-07T11:34:26.107Z,1008.53
2018-04-07T11:35:25.746Z,1008.53
2018-04-07T11:36:25.593Z,1008.50
2018-04-07T11:37:25.623Z,1008.53
2018-04-07T11:38:25.695Z,1008.51
2018-04-07T11:39:25.592Z,1008.43
2018-04-07T11:40:25.689Z,1008.41
2018-04-07T11:41:25.605Z,1008.44
2018-04-07T11:43:25.601Z,1008.43
2018-04-07T11:44:25.635Z,1008.40
2018-04-07T11:45:25.665Z,1008.42
2018-04-07T11:46:29.030Z,1008.34
2018-04-07T11:47:26.994Z,1008.33
2018-04-07T11:48:25.819Z,1008.28
2018-04-07T11:49:26.018Z,1008.21
2018-04-07T11:51:25.760Z,1008.22
2018-04-07T11:52:25.635Z,1008.19
2018-04-07T11:53:25.583Z,1008.23
2018-04-07T11:54:25.686Z,1008.23
2018-04-07T11:55:25.588Z,1008.23
2018-04-07T11:56:25.944Z,1008.23
2018-04-07T11:57:25.582Z,1008.19
2018-04-07T11:59:25.628Z,1008.21
2018-04-07T12:00:25.595Z,1008.19
2018-04-07T12:01:25.593Z,1008.19
2018-04-07T12:02:25.599Z,1008.18
2018-04-07T12:03:25.576Z,1008.11
2018-04-07T12:04:25.929Z,1008.13
2018-04-07T12:05:25.578Z,1008.15
2018-04-07T12:06:25.592Z,1008.16
2018-04-07T12:07:25.573Z,1008.14
2018-04-07T12:08:25.571Z,1008.10
2018-04-07T12:09:25.576Z,1008.08
2018-04-07T12:10:32.131Z,1008.10
2018-04-07T12:11:25.614Z,1008.06
2018-04-07T12:12:25.783Z,1008.04
2018-04-07T12:13:25.572Z,1008.05
2018-04-07T12:14:25.569Z,1008.08
2018-04-07T12:15:25.576Z,1008.00
2018-04-07T12:16:25.923Z,1007.96
2018-04-07T12:17:25.620Z,1007.99
2018-04-07T12:18:25.571Z,1007.92
2018-04-07T12:19:25.775Z,1008.00
2018-04-07T12:20:25.572Z,1007.97
2018-04-07T12:21:25.570Z,1007.96
2018-04-07T12:22:25.716Z,1007.99
2018-04-07T12:23:25.579Z,1007.89
2018-04-07T12:24:25.685Z,1007.92
2018-04-07T12:25:25.575Z,1007.94
2018-04-07T12:26:25.568Z,1007.89
2018-04-07T12:27:25.574Z,1007.85
2018-04-07T12:29:25.917Z,1007.95
2018-04-07T12:30:25.622Z,1007.89
2018-04-07T12:31:25.559Z,1007.90
2018-04-07T12:32:25.565Z,1007.89